sensor_id;sensor_type;location;lat;lon;timestamp;pressure;altitude;pressure_sealevel;temperature;humidity
20971;BME280;10644;48.834;10.088;2023-03-19T00:00:47;96363.91;;;15.60;47.20
20971;BME280;10644;48.834;10.088;2023-03-19T00:03:23;96354.84;;;15.66;47.59
20971;BME280;10644;48.834;10.088;2023-03-19T00:05:56;96359.41;;;15.73;47.52
20971;BME280;10644;48.834;10.088;2023-03-19T00:08:27;96355.09;;;15.63;47.67
20971;BME280;10644;48.834;10.088;2023-03-19T00:11:10;96359.09;;;15.56;47.81
20971;BME280;10644;48.834;10.088;2023-03-19T00:13:41;96358.88;;;15.26;48.64
20971;BME280;10644;48.834;10.088;2023-03-19T00:16:17;96371.09;;;15.24;48.50
20971;BME280;10644;48.834;10.088;2023-03-19T00:18:52;96369.91;;;15.28;48.36
20971;BME280;10644;48.834;10.088;2023-03-19T00:21:24;96372.84;;;15.34;48.67
20971;BME280;10644;48.834;10.088;2023-03-19T00:24:02;96367.66;;;15.23;48.70
20971;BME280;10644;48.834;10.088;2023-03-19T00:29:56;96364.75;;;15.17;48.55
20971;BME280;10644;48.834;10.088;2023-03-19T00:32:32;96378.81;;;15.24;48.67
20971;BME280;10644;48.834;10.088;2023-03-19T00:35:08;96372.25;;;15.20;48.46
20971;BME280;10644;48.834;10.088;2023-03-19T00:37:40;96367.09;;;15.20;48.41
20971;BME280;10644;48.834;10.088;2023-03-19T00:40:07;96373.41;;;15.27;48.85
20971;BME280;10644;48.834;10.088;2023-03-19T00:42:34;96376.72;;;15.29;48.60
20971;BME280;10644;48.834;10.088;2023-03-19T00:45:15;96373.28;;;15.28;48.41
20971;BME280;10644;48.834;10.088;2023-03-19T00:47:47;96376.94;;;15.26;48.65
20971;BME280;10644;48.834;10.088;2023-03-19T00:53:07;96368.97;;;15.29;48.55
20971;BME280;10644;48.834;10.088;2023-03-19T00:55:51;96378.34;;;15.30;48.30
20971;BME280;10644;48.834;10.088;2023-03-19T00:58:17;96382.47;;;15.32;48.88
20971;BME280;10644;48.834;10.088;2023-03-19T01:00:58;96385.91;;;15.33;48.51
20971;BME280;10644;48.834;10.088;2023-03-19T01:03:38;96393.16;;;15.17;48.91
20971;BME280;10644;48.834;10.088;2023-03-19T01:06:12;96395.59;;;14.96;49.96
20971;BME280;10644;48.834;10.088;2023-03-19T01:08:44;96399.94;;;14.96;49.83
20971;BME280;10644;48.834;10.088;2023-03-19T01:11:16;96389.97;;;15.02;49.61
20971;BME280;10644;48.834;10.088;2023-03-19T01:13:43;96390.31;;;15.09;49.82
20971;BME280;10644;48.834;10.088;2023-03-19T01:16:26;96394.88;;;15.27;49.20
20971;BME280;10644;48.834;10.088;2023-03-19T01:18:55;96404.84;;;15.32;49.37
20971;BME280;10644;48.834;10.088;2023-03-19T01:21:28;96394.34;;;15.35;49.21
20971;BME280;10644;48.834;10.088;2023-03-19T01:23:56;96398.78;;;15.44;49.15
20971;BME280;10644;48.834;10.088;2023-03-19T01:26:44;96393.63;;;15.44;48.64
20971;BME280;10644;48.834;10.088;2023-03-19T01:29:28;96395.94;;;15.25;49.22
20971;BME280;10644;48.834;10.088;2023-03-19T01:32:01;96402.75;;;15.26;49.35
20971;BME280;10644;48.834;10.088;2023-03-19T01:34:37;96397.56;;;15.26;49.48
20971;BME280;10644;48.834;10.088;2023-03-19T01:37:04;96393.72;;;14.98;50.40
20971;BME280;10644;48.834;10.088;2023-03-19T01:39:31;96393.72;;;14.98;50.30
20971;BME280;10644;48.834;10.088;2023-03-19T01:42:07;96384.56;;;15.05;49.91
20971;BME280;10644;48.834;10.088;2023-03-19T01:45:26;96390.19;;;15.21;49.51
20971;BME280;10644;48.834;10.088;2023-03-19T01:47:58;96396.63;;;15.27;49.73
20971;BME280;10644;48.834;10.088;2023-03-19T01:50:39;96389.28;;;15.33;49.58
20971;BME280;10644;48.834;10.088;2023-03-19T01:53:26;96390.56;;;15.28;49.59
20971;BME280;10644;48.834;10.088;2023-03-19T01:59:29;96396.66;;;15.16;49.89
20971;BME280;10644;48.834;10.088;2023-03-19T02:01:58;96392.75;;;14.88;51.26
20971;BME280;10644;48.834;10.088;2023-03-19T02:04:32;96385.63;;;14.92;51.30
20971;BME280;10644;48.834;10.088;2023-03-19T02:07:01;96391.72;;;15.02;50.82
20971;BME280;10644;48.834;10.088;2023-03-19T02:09:28;96396.06;;;15.12;51.32
20971;BME280;10644;48.834;10.088;2023-03-19T02:11:55;96398.88;;;15.20;50.70
20971;BME280;10644;48.834;10.088;2023-03-19T02:14:51;96394.06;;;15.27;50.35
20971;BME280;10644;48.834;10.088;2023-03-19T02:17:29;96383.03;;;15.25;50.44
20971;BME280;10644;48.834;10.088;2023-03-19T02:22:45;96403.47;;;15.17;51.26
20971;BME280;10644;48.834;10.088;2023-03-19T02:25:28;96403.22;;;15.20;50.31
20971;BME280;10644;48.834;10.088;2023-03-19T02:28:32;96405.78;;;15.31;50.15
20971;BME280;10644;48.834;10.088;2023-03-19T02:30:58;96411.91;;;15.30;50.55
20971;BME280;10644;48.834;10.088;2023-03-19T02:33:28;96403.56;;;15.26;50.58
20971;BME280;10644;48.834;10.088;2023-03-19T02:35:57;96413.66;;;15.29;50.84
20971;BME280;10644;48.834;10.088;2023-03-19T02:38:24;96414.13;;;15.23;50.61
20971;BME280;10644;48.834;10.088;2023-03-19T02:40:59;96420.81;;;15.26;50.86
20971;BME280;10644;48.834;10.088;2023-03-19T02:43:40;96411.44;;;15.25;50.59
20971;BME280;10644;48.834;10.088;2023-03-19T02:46:10;96419.44;;;15.33;50.84
20971;BME280;10644;48.834;10.088;2023-03-19T02:48:54;96433.16;;;15.33;50.46
20971;BME280;10644;48.834;10.088;2023-03-19T02:51:32;96443.81;;;15.29;50.67
20971;BME280;10644;48.834;10.088;2023-03-19T02:54:11;96441.22;;;15.18;50.58
20971;BME280;10644;48.834;10.088;2023-03-19T02:56:39;96446.03;;;15.11;51.64
20971;BME280;10644;48.834;10.088;2023-03-19T02:59:14;96449.78;;;15.07;51.05
20971;BME280;10644;48.834;10.088;2023-03-19T03:01:46;96440.38;;;15.06;50.75
20971;BME280;10644;48.834;10.088;2023-03-19T03:04:34;96446.03;;;15.11;50.84
20971;BME280;10644;48.834;10.088;2023-03-19T03:07:09;96445.44;;;15.08;51.36
20971;BME280;10644;48.834;10.088;2023-03-19T03:09:51;96451.88;;;15.02;51.29
20971;BME280;10644;48.834;10.088;2023-03-19T03:12:32;96461.16;;;15.05;51.65
20971;BME280;10644;48.834;10.088;2023-03-19T03:15:04;96458.22;;;15.09;52.14
20971;BME280;10644;48.834;10.088;2023-03-19T03:17:30;96457.88;;;15.14;52.60
20971;BME280;10644;48.834;10.088;2023-03-19T03:20:09;96456.72;;;15.18;51.95
20971;BME280;10644;48.834;10.088;2023-03-19T03:22:36;96470.09;;;15.23;52.55
20971;BME280;10644;48.834;10.088;2023-03-19T03:28:13;96460.47;;;15.25;53.39
20971;BME280;10644;48.834;10.088;2023-03-19T03:31:05;96471.13;;;15.20;53.71
20971;BME280;10644;48.834;10.088;2023-03-19T03:33:47;96469.59;;;15.07;53.06
20971;BME280;10644;48.834;10.088;2023-03-19T03:36:25;96467.72;;;15.09;52.96
20971;BME280;10644;48.834;10.088;2023-03-19T03:38:51;96468.16;;;15.03;54.05
20971;BME280;10644;48.834;10.088;2023-03-19T03:41:20;96474.69;;;14.85;54.24
20971;BME280;10644;48.834;10.088;2023-03-19T03:43:48;96490.66;;;14.90;54.41
20971;BME280;10644;48.834;10.088;2023-03-19T03:46:28;96485.81;;;14.74;54.22
20971;BME280;10644;48.834;10.088;2023-03-19T03:49:19;96496.25;;;14.73;54.12
20971;BME280;10644;48.834;10.088;2023-03-19T03:51:55;96492.03;;;14.72;54.14
20971;BME280;10644;48.834;10.088;2023-03-19T03:54:28;96492.50;;;14.77;53.99
20971;BME280;10644;48.834;10.088;2023-03-19T03:57:07;96495.34;;;14.85;53.72
20971;BME280;10644;48.834;10.088;2023-03-19T03:59:32;96493.25;;;14.90;54.12
20971;BME280;10644;48.834;10.088;2023-03-19T04:02:07;96503.09;;;14.96;53.17
20971;BME280;10644;48.834;10.088;2023-03-19T04:04:34;96503.69;;;14.99;53.69
20971;BME280;10644;48.834;10.088;2023-03-19T04:07:01;96506.16;;;15.01;53.67
20971;BME280;10644;48.834;10.088;2023-03-19T04:09:32;96502.88;;;15.10;53.64
20971;BME280;10644;48.834;10.088;2023-03-19T04:11:59;96499.25;;;15.12;53.83
20971;BME280;10644;48.834;10.088;2023-03-19T04:14:53;96502.91;;;15.21;52.95
20971;BME280;10644;48.834;10.088;2023-03-19T04:17:23;96500.22;;;15.22;53.66
20971;BME280;10644;48.834;10.088;2023-03-19T04:19:50;96493.06;;;15.26;53.90
20971;BME280;10644;48.834;10.088;2023-03-19T04:22:23;96501.28;;;15.31;53.44
20971;BME280;10644;48.834;10.088;2023-03-19T04:25:07;96495.69;;;15.37;52.98
20971;BME280;10644;48.834;10.088;2023-03-19T04:27:34;96501.56;;;15.39;54.38
20971;BME280;10644;48.834;10.088;2023-03-19T04:30:34;96510.22;;;15.38;53.45
20971;BME280;10644;48.834;10.088;2023-03-19T04:33:14;96507.28;;;15.31;53.57
20971;BME280;10644;48.834;10.088;2023-03-19T04:35:56;96503.69;;;15.34;54.02
20971;BME280;10644;48.834;10.088;2023-03-19T04:38:23;96497.75;;;15.32;54.71
20971;BME280;10644;48.834;10.088;2023-03-19T04:41:08;96500.34;;;15.32;53.78
20971;BME280;10644;48.834;10.088;2023-03-19T04:43:38;96498.94;;;15.28;54.11
20971;BME280;10644;48.834;10.088;2023-03-19T04:46:05;96497.91;;;15.30;54.24
20971;BME280;10644;48.834;10.088;2023-03-19T04:48:35;96497.69;;;15.33;54.12
20971;BME280;10644;48.834;10.088;2023-03-19T04:54:45;96509.91;;;15.42;53.14
20971;BME280;10644;48.834;10.088;2023-03-19T04:57:16;96510.38;;;15.36;53.33
20971;BME280;10644;48.834;10.088;2023-03-19T04:59:53;96516.06;;;15.18;54.03
20971;BME280;10644;48.834;10.088;2023-03-19T05:02:44;96518.38;;;15.21;54.14
20971;BME280;10644;48.834;10.088;2023-03-19T05:05:19;96520.06;;;15.22;54.67
20971;BME280;10644;48.834;10.088;2023-03-19T05:07:53;96526.38;;;15.18;54.39
20971;BME280;10644;48.834;10.088;2023-03-19T05:10:19;96529.41;;;15.12;54.99
20971;BME280;10644;48.834;10.088;2023-03-19T05:16:03;96541.59;;;15.10;54.36
20971;BME280;10644;48.834;10.088;2023-03-19T05:18:41;96550.28;;;15.09;54.34
20971;BME280;10644;48.834;10.088;2023-03-19T05:21:17;96555.97;;;14.90;55.41
20971;BME280;10644;48.834;10.088;2023-03-19T05:23:50;96564.72;;;14.77;55.82
20971;BME280;10644;48.834;10.088;2023-03-19T05:26:28;96556.19;;;14.64;56.37
20971;BME280;10644;48.834;10.088;2023-03-19T05:28:55;96564.56;;;14.44;58.18
20971;BME280;10644;48.834;10.088;2023-03-19T05:31:25;96560.56;;;14.27;58.29
20971;BME280;10644;48.834;10.088;2023-03-19T05:33:53;96567.13;;;14.44;58.21
20971;BME280;10644;48.834;10.088;2023-03-19T05:36:23;96567.78;;;14.58;57.72
20971;BME280;10644;48.834;10.088;2023-03-19T05:38:56;96570.72;;;14.65;58.06
20971;BME280;10644;48.834;10.088;2023-03-19T05:44:26;96584.91;;;14.83;57.99
20971;BME280;10644;48.834;10.088;2023-03-19T05:46:59;96564.53;;;14.67;58.35
20971;BME280;10644;48.834;10.088;2023-03-19T05:49:25;96577.75;;;14.63;58.90
20971;BME280;10644;48.834;10.088;2023-03-19T05:51:51;96584.59;;;14.28;61.25
20971;BME280;10644;48.834;10.088;2023-03-19T05:54:30;96575.91;;;13.43;65.16
20971;BME280;10644;48.834;10.088;2023-03-19T05:57:11;96583.94;;;13.26;66.26
20971;BME280;10644;48.834;10.088;2023-03-19T05:59:38;96590.72;;;12.88;68.19
20971;BME280;10644;48.834;10.088;2023-03-19T06:05:05;96579.91;;;13.22;66.73
20971;BME280;10644;48.834;10.088;2023-03-19T06:07:52;96585.88;;;12.84;68.65
20971;BME280;10644;48.834;10.088;2023-03-19T06:10:18;96582.03;;;12.64;69.69
20971;BME280;10644;48.834;10.088;2023-03-19T06:12:53;96576.22;;;12.87;67.90
20971;BME280;10644;48.834;10.088;2023-03-19T06:15:32;96571.69;;;12.91;68.27
20971;BME280;10644;48.834;10.088;2023-03-19T06:18:10;96576.69;;;13.06;67.77
20971;BME280;10644;48.834;10.088;2023-03-19T06:20:49;96576.28;;;13.00;68.51
20971;BME280;10644;48.834;10.088;2023-03-19T06:23:20;96584.34;;;12.93;69.29
20971;BME280;10644;48.834;10.088;2023-03-19T06:25:46;96588.31;;;12.99;68.80
20971;BME280;10644;48.834;10.088;2023-03-19T06:28:36;96588.47;;;13.35;66.47
20971;BME280;10644;48.834;10.088;2023-03-19T06:31:14;96599.91;;;13.56;65.30
20971;BME280;10644;48.834;10.088;2023-03-19T06:33:45;96594.13;;;13.77;65.12
20971;BME280;10644;48.834;10.088;2023-03-19T06:36:19;96602.53;;;13.92;64.07
20971;BME280;10644;48.834;10.088;2023-03-19T06:38:51;96598.00;;;14.08;63.96
20971;BME280;10644;48.834;10.088;2023-03-19T06:41:20;96610.06;;;14.20;63.70
20971;BME280;10644;48.834;10.088;2023-03-19T06:47:17;96620.75;;;14.14;64.25
20971;BME280;10644;48.834;10.088;2023-03-19T06:49:43;96607.78;;;14.15;64.68
20971;BME280;10644;48.834;10.088;2023-03-19T06:52:30;96626.44;;;14.31;63.34
20971;BME280;10644;48.834;10.088;2023-03-19T06:55:32;96630.63;;;14.45;62.63
20971;BME280;10644;48.834;10.088;2023-03-19T06:58:20;96626.69;;;14.52;62.52
20971;BME280;10644;48.834;10.088;2023-03-19T07:00:51;96621.09;;;14.58;62.64
20971;BME280;10644;48.834;10.088;2023-03-19T07:03:38;96630.97;;;14.64;62.60
20971;BME280;10644;48.834;10.088;2023-03-19T07:06:08;96626.16;;;14.23;63.94
20971;BME280;10644;48.834;10.088;2023-03-19T07:08:34;96629.00;;;14.31;63.90
20971;BME280;10644;48.834;10.088;2023-03-19T07:11:23;96634.84;;;14.46;63.23
20971;BME280;10644;48.834;10.088;2023-03-19T07:13:54;96636.56;;;14.58;63.57
20971;BME280;10644;48.834;10.088;2023-03-19T07:16:32;96633.88;;;14.59;63.11
20971;BME280;10644;48.834;10.088;2023-03-19T07:19:05;96635.19;;;14.65;62.87
20971;BME280;10644;48.834;10.088;2023-03-19T07:21:32;96629.66;;;14.58;62.75
20971;BME280;10644;48.834;10.088;2023-03-19T07:24:00;96638.00;;;14.62;62.92
20971;BME280;10644;48.834;10.088;2023-03-19T07:26:32;96635.19;;;14.65;61.64
20971;BME280;10644;48.834;10.088;2023-03-19T07:29:28;96641.59;;;14.59;61.48
20971;BME280;10644;48.834;10.088;2023-03-19T07:31:58;96644.22;;;14.47;62.34
20971;BME280;10644;48.834;10.088;2023-03-19T07:34:32;96641.09;;;14.54;62.03
20971;BME280;10644;48.834;10.088;2023-03-19T07:36:57;96634.91;;;14.57;62.25
20971;BME280;10644;48.834;10.088;2023-03-19T07:39:35;96646.50;;;14.51;62.67
20971;BME280;10644;48.834;10.088;2023-03-19T07:42:11;96638.69;;;14.40;62.55
20971;BME280;10644;48.834;10.088;2023-03-19T07:45:10;96642.56;;;14.46;63.00
20971;BME280;10644;48.834;10.088;2023-03-19T07:47:48;96644.03;;;14.37;63.00
20971;BME280;10644;48.834;10.088;2023-03-19T07:50:13;96638.59;;;14.17;64.21
20971;BME280;10644;48.834;10.088;2023-03-19T07:52:44;96635.41;;;14.01;65.59
20971;BME280;10644;48.834;10.088;2023-03-19T07:59:01;96630.38;;;13.87;65.74
20971;BME280;10644;48.834;10.088;2023-03-19T08:01:29;96634.59;;;13.88;66.29
20971;BME280;10644;48.834;10.088;2023-03-19T08:03:56;96637.06;;;14.02;65.67
20971;BME280;10644;48.834;10.088;2023-03-19T08:06:39;96634.38;;;14.16;64.82
20971;BME280;10644;48.834;10.088;2023-03-19T08:09:19;96625.94;;;14.01;65.76
20971;BME280;10644;48.834;10.088;2023-03-19T08:12:06;96638.06;;;14.12;65.48
20971;BME280;10644;48.834;10.088;2023-03-19T08:14:45;96631.69;;;14.17;65.34
20971;BME280;10644;48.834;10.088;2023-03-19T08:17:15;96631.25;;;14.36;65.36
20971;BME280;10644;48.834;10.088;2023-03-19T08:19:51;96630.19;;;14.51;64.74
20971;BME280;10644;48.834;10.088;2023-03-19T08:22:20;96627.16;;;14.69;65.19
20971;BME280;10644;48.834;10.088;2023-03-19T08:25:21;96626.38;;;14.80;64.35
20971;BME280;10644;48.834;10.088;2023-03-19T08:27:49;96631.38;;;14.94;64.99
20971;BME280;10644;48.834;10.088;2023-03-19T08:30:21;96626.72;;;14.99;64.28
20971;BME280;10644;48.834;10.088;2023-03-19T08:32:56;96632.03;;;15.08;63.80
20971;BME280;10644;48.834;10.088;2023-03-19T08:35:23;96634.25;;;15.13;64.53
20971;BME280;10644;48.834;10.088;2023-03-19T08:38:08;96637.78;;;15.12;64.05
20971;BME280;10644;48.834;10.088;2023-03-19T08:40:44;96631.47;;;15.16;64.24
20971;BME280;10644;48.834;10.088;2023-03-19T08:43:18;96637.22;;;15.19;64.01
20971;BME280;10644;48.834;10.088;2023-03-19T08:45:53;96636.25;;;15.09;64.68
20971;BME280;10644;48.834;10.088;2023-03-19T08:48:30;96636.84;;;15.13;64.71
20971;BME280;10644;48.834;10.088;2023-03-19T08:51:03;96638.59;;;15.12;64.45
20971;BME280;10644;48.834;10.088;2023-03-19T08:53:30;96639.41;;;15.13;64.80
20971;BME280;10644;48.834;10.088;2023-03-19T08:56:04;96645.31;;;15.26;64.22
20971;BME280;10644;48.834;10.088;2023-03-19T08:58:51;96650.81;;;15.34;63.56
20971;BME280;10644;48.834;10.088;2023-03-19T09:01:16;96651.09;;;15.29;64.08
20971;BME280;10644;48.834;10.088;2023-03-19T09:03:43;96645.06;;;15.18;64.95
20971;BME280;10644;48.834;10.088;2023-03-19T09:06:27;96651.50;;;15.36;64.05
20971;BME280;10644;48.834;10.088;2023-03-19T09:08:53;96650.97;;;15.31;64.41
20971;BME280;10644;48.834;10.088;2023-03-19T09:11:28;96650.34;;;15.16;64.04
20971;BME280;10644;48.834;10.088;2023-03-19T09:14:02;96653.31;;;14.99;64.42
20971;BME280;10644;48.834;10.088;2023-03-19T09:16:39;96653.84;;;15.15;63.85
20971;BME280;10644;48.834;10.088;2023-03-19T09:19:34;96657.28;;;15.27;63.86
20971;BME280;10644;48.834;10.088;2023-03-19T09:25:29;96650.81;;;15.34;61.16
20971;BME280;10644;48.834;10.088;2023-03-19T09:28:05;96652.56;;;15.21;61.06
20971;BME280;10644;48.834;10.088;2023-03-19T09:30:48;96658.31;;;15.37;60.66
20971;BME280;10644;48.834;10.088;2023-03-19T09:33:48;96659.53;;;15.44;60.49
20971;BME280;10644;48.834;10.088;2023-03-19T09:36:22;96660.25;;;15.57;60.03
20971;BME280;10644;48.834;10.088;2023-03-19T09:39:01;96657.63;;;15.46;60.12
20971;BME280;10644;48.834;10.088;2023-03-19T09:47:50;96647.00;;;15.61;59.26
20971;BME280;10644;48.834;10.088;2023-03-19T10:29:52;96619.47;;;17.24;52.94
20971;BME280;10644;48.834;10.088;2023-03-19T10:32:32;96611.44;;;17.27;51.97
20971;BME280;10644;48.834;10.088;2023-03-19T10:35:42;96618.28;;;17.48;53.34
20971;BME280;10644;48.834;10.088;2023-03-19T10:38:25;96610.16;;;17.53;50.88
20971;BME280;10644;48.834;10.088;2023-03-19T10:43:50;96597.66;;;18.18;50.46
20971;BME280;10644;48.834;10.088;2023-03-19T10:49:58;96591.84;;;18.84;49.62
20971;BME280;10644;48.834;10.088;2023-03-19T10:52:31;96586.66;;;18.93;48.20
20971;BME280;10644;48.834;10.088;2023-03-19T10:55:18;96582.03;;;19.16;48.55
20971;BME280;10644;48.834;10.088;2023-03-19T11:01:14;96582.59;;;19.10;46.22
20971;BME280;10644;48.834;10.088;2023-03-19T11:04:00;96584.75;;;19.33;46.75
20971;BME280;10644;48.834;10.088;2023-03-19T11:28:18;96558.16;;;20.68;42.07
20971;BME280;10644;48.834;10.088;2023-03-19T11:50:10;96544.19;;;20.42;41.12
20971;BME280;10644;48.834;10.088;2023-03-19T11:53:37;96542.63;;;20.49;40.60
20971;BME280;10644;48.834;10.088;2023-03-19T11:56:11;96533.63;;;20.61;40.69
20971;BME280;10644;48.834;10.088;2023-03-19T11:59:08;96528.59;;;20.77;41.05
20971;BME280;10644;48.834;10.088;2023-03-19T12:01:40;96526.09;;;20.85;39.82
20971;BME280;10644;48.834;10.088;2023-03-19T12:09:54;96514.06;;;21.27;40.18
20971;BME280;10644;48.834;10.088;2023-03-19T12:12:27;96525.13;;;21.03;39.98
20971;BME280;10644;48.834;10.088;2023-03-19T12:17:45;96519.91;;;20.86;40.25
20971;BME280;10644;48.834;10.088;2023-03-19T12:29:26;96501.00;;;21.44;40.30
20971;BME280;10644;48.834;10.088;2023-03-19T12:32:08;96503.31;;;21.73;39.33
20971;BME280;10644;48.834;10.088;2023-03-19T12:37:19;96500.91;;;21.54;37.66
20971;BME280;10644;48.834;10.088;2023-03-19T12:40:19;96505.34;;;21.36;38.10
20971;BME280;10644;48.834;10.088;2023-03-19T12:42:47;96502.66;;;20.85;38.65
20971;BME280;10644;48.834;10.088;2023-03-19T12:45:32;96506.69;;;20.97;40.04
20971;BME280;10644;48.834;10.088;2023-03-19T12:48:06;96497.34;;;21.12;38.86
20971;BME280;10644;48.834;10.088;2023-03-19T12:50:36;96494.81;;;21.20;38.27
20971;BME280;10644;48.834;10.088;2023-03-19T12:53:08;96488.25;;;21.16;38.73
20971;BME280;10644;48.834;10.088;2023-03-19T12:55:46;96493.09;;;21.11;39.36
20971;BME280;10644;48.834;10.088;2023-03-19T12:58:28;96480.31;;;21.00;39.04
20971;BME280;10644;48.834;10.088;2023-03-19T13:01:13;96494.16;;;20.48;40.53
20971;BME280;10644;48.834;10.088;2023-03-19T13:06:36;96485.72;;;20.19;40.21
20971;BME280;10644;48.834;10.088;2023-03-19T13:09:13;96492.09;;;20.24;40.76
20971;BME280;10644;48.834;10.088;2023-03-19T13:12:00;96487.34;;;20.20;41.24
20971;BME280;10644;48.834;10.088;2023-03-19T13:15:15;96479.16;;;20.15;40.32
20971;BME280;10644;48.834;10.088;2023-03-19T13:17:33;96478.47;;;20.40;40.30
20971;BME280;10644;48.834;10.088;2023-03-19T13:20:17;96478.97;;;20.61;40.21
20971;BME280;10644;48.834;10.088;2023-03-19T13:22:54;96479.19;;;20.50;40.71
20971;BME280;10644;48.834;10.088;2023-03-19T13:25:30;96480.00;;;20.33;40.34
20971;BME280;10644;48.834;10.088;2023-03-19T13:27:57;96472.94;;;20.43;39.90
20971;BME280;10644;48.834;10.088;2023-03-19T13:30:23;96474.06;;;20.40;39.51
20971;BME280;10644;48.834;10.088;2023-03-19T13:33:17;96476.69;;;20.58;40.44
20971;BME280;10644;48.834;10.088;2023-03-19T13:35:49;96473.03;;;20.68;39.23
20971;BME280;10644;48.834;10.088;2023-03-19T13:38:23;96465.50;;;20.83;39.61
20971;BME280;10644;48.834;10.088;2023-03-19T13:40:53;96463.66;;;20.40;39.51
20971;BME280;10644;48.834;10.088;2023-03-19T14:01:01;96455.41;;;20.45;40.94
20971;BME280;10644;48.834;10.088;2023-03-19T14:03:29;96466.19;;;20.32;40.88
20971;BME280;10644;48.834;10.088;2023-03-19T14:05:56;96458.50;;;20.31;40.10
20971;BME280;10644;48.834;10.088;2023-03-19T14:08:26;96455.69;;;20.42;39.87
20971;BME280;10644;48.834;10.088;2023-03-19T14:10:57;96458.97;;;20.44;40.22
20971;BME280;10644;48.834;10.088;2023-03-19T14:15:52;96463.94;;;20.55;40.35
20971;BME280;10644;48.834;10.088;2023-03-19T14:18:20;96468.47;;;20.18;39.77
20971;BME280;10644;48.834;10.088;2023-03-19T14:23:26;96455.16;;;20.21;40.00
20971;BME280;10644;48.834;10.088;2023-03-19T14:26:18;96443.78;;;20.22;41.18
20971;BME280;10644;48.834;10.088;2023-03-19T14:29:00;96443.22;;;20.28;41.44
20971;BME280;10644;48.834;10.088;2023-03-19T14:31:41;96442.91;;;20.31;40.40
20971;BME280;10644;48.834;10.088;2023-03-19T14:36:40;96437.47;;;20.24;42.15
20971;BME280;10644;48.834;10.088;2023-03-19T14:39:27;96449.47;;;20.35;40.30
20971;BME280;10644;48.834;10.088;2023-03-19T14:55:48;96445.50;;;19.77;38.11
20971;BME280;10644;48.834;10.088;2023-03-19T14:58:14;96450.81;;;19.58;38.82
20971;BME280;10644;48.834;10.088;2023-03-19T15:00:45;96454.19;;;19.68;38.43
20971;BME280;10644;48.834;10.088;2023-03-19T15:03:33;96445.28;;;19.70;39.19
20971;BME280;10644;48.834;10.088;2023-03-19T15:06:03;96450.34;;;19.72;38.04
20971;BME280;10644;48.834;10.088;2023-03-19T15:08:31;96440.22;;;19.69;38.22
20971;BME280;10644;48.834;10.088;2023-03-19T15:16:34;96445.22;;;19.53;38.87
20971;BME280;10644;48.834;10.088;2023-03-19T15:19:02;96439.44;;;19.59;38.81
20971;BME280;10644;48.834;10.088;2023-03-19T15:21:29;96436.97;;;19.67;38.46
20971;BME280;10644;48.834;10.088;2023-03-19T15:23:55;96439.25;;;19.70;39.36
20971;BME280;10644;48.834;10.088;2023-03-19T15:26:30;96443.09;;;19.75;38.97
20971;BME280;10644;48.834;10.088;2023-03-19T15:28:59;96447.19;;;19.78;38.55
20971;BME280;10644;48.834;10.088;2023-03-19T15:31:40;96458.81;;;19.74;38.82
20971;BME280;10644;48.834;10.088;2023-03-19T15:34:22;96474.34;;;19.56;38.84
20971;BME280;10644;48.834;10.088;2023-03-19T15:36:52;96478.28;;;19.24;41.20
20971;BME280;10644;48.834;10.088;2023-03-19T15:39:23;96475.13;;;19.11;42.46
20971;BME280;10644;48.834;10.088;2023-03-19T15:41:50;96487.19;;;18.74;44.14
20971;BME280;10644;48.834;10.088;2023-03-19T15:44:35;96489.66;;;18.56;44.54
20971;BME280;10644;48.834;10.088;2023-03-19T15:47:04;96480.50;;;18.43;45.14
20971;BME280;10644;48.834;10.088;2023-03-19T15:49:36;96492.66;;;18.52;45.50
20971;BME280;10644;48.834;10.088;2023-03-19T15:52:04;96505.06;;;18.39;46.26
20971;BME280;10644;48.834;10.088;2023-03-19T15:54:32;96500.72;;;18.39;46.34
20971;BME280;10644;48.834;10.088;2023-03-19T15:56:57;96502.78;;;18.45;46.44
20971;BME280;10644;48.834;10.088;2023-03-19T15:59:25;96513.69;;;18.49;46.08
20971;BME280;10644;48.834;10.088;2023-03-19T16:02:33;96511.63;;;18.43;46.61
20971;BME280;10644;48.834;10.088;2023-03-19T16:04:59;96510.38;;;18.47;46.51
20971;BME280;10644;48.834;10.088;2023-03-19T16:10:05;96522.69;;;18.45;46.34
20971;BME280;10644;48.834;10.088;2023-03-19T16:12:47;96527.34;;;18.51;46.34
20971;BME280;10644;48.834;10.088;2023-03-19T16:15:32;96530.06;;;18.59;46.20
20971;BME280;10644;48.834;10.088;2023-03-19T16:20:44;96540.31;;;18.51;47.02
20971;BME280;10644;48.834;10.088;2023-03-19T16:23:17;96541.69;;;18.55;46.31
20971;BME280;10644;48.834;10.088;2023-03-19T16:25:43;96546.34;;;18.51;46.83
20971;BME280;10644;48.834;10.088;2023-03-19T16:28:18;96539.88;;;18.46;46.61
20971;BME280;10644;48.834;10.088;2023-03-19T16:30:49;96542.03;;;18.31;47.14
20971;BME280;10644;48.834;10.088;2023-03-19T16:33:15;96536.81;;;18.22;47.91
20971;BME280;10644;48.834;10.088;2023-03-19T16:35:41;96546.41;;;18.31;47.90
20971;BME280;10644;48.834;10.088;2023-03-19T16:38:22;96560.09;;;18.42;47.17
20971;BME280;10644;48.834;10.088;2023-03-19T16:40:49;96552.19;;;18.44;47.77
20971;BME280;10644;48.834;10.088;2023-03-19T16:43:31;96552.19;;;18.44;47.44
20971;BME280;10644;48.834;10.088;2023-03-19T16:46:05;96549.00;;;18.31;47.73
20971;BME280;10644;48.834;10.088;2023-03-19T16:48:33;96556.44;;;18.15;47.88
20971;BME280;10644;48.834;10.088;2023-03-19T16:50:58;96576.91;;;18.18;48.22
20971;BME280;10644;48.834;10.088;2023-03-19T16:53:26;96584.97;;;18.15;48.67
20971;BME280;10644;48.834;10.088;2023-03-19T16:55:54;96583.16;;;18.06;48.42
20971;BME280;10644;48.834;10.088;2023-03-19T17:00:49;96616.13;;;17.94;48.61
20971;BME280;10644;48.834;10.088;2023-03-19T17:03:16;96616.34;;;17.82;49.73